createdAt,value
2017-09-22T00:01:56.950Z,99.90
2017-09-22T00:04:24.519Z,99.90
2017-09-22T00:06:52.878Z,99.90
2017-09-22T00:09:20.470Z,99.90
2017-09-22T00:11:48.831Z,99.90
2017-09-22T00:14:16.420Z,99.90
2017-09-22T00:16:44.018Z,99.90
2017-09-22T00:19:11.638Z,99.90
2017-09-22T00:21:39.235Z,99.90
2017-09-22T00:24:06.855Z,99.90
2017-09-22T00:26:35.198Z,99.90
2017-09-22T00:29:02.790Z,99.90
2017-09-22T00:31:31.183Z,99.90
2017-09-22T00:33:58.854Z,99.90
2017-09-22T00:36:26.446Z,99.90
2017-09-22T00:38:54.059Z,99.90
2017-09-22T00:41:22.402Z,99.90
2017-09-22T00:43:50.006Z,99.90
2017-09-22T00:46:17.610Z,99.90
2017-09-22T00:48:45.202Z,99.90
2017-09-22T00:51:12.850Z,99.90
2017-09-22T00:53:40.474Z,99.90
2017-09-22T00:56:08.058Z,99.90
2017-09-22T00:58:35.650Z,99.90
2017-09-22T01:01:03.219Z,99.90
2017-09-22T01:03:31.599Z,99.90
2017-09-22T01:05:59.970Z,99.90
2017-09-22T01:08:27.586Z,99.90
2017-09-22T01:10:55.353Z,99.90
2017-09-22T01:13:22.946Z,99.90
2017-09-22T01:15:50.754Z,99.90
2017-09-22T01:18:19.375Z,99.90
2017-09-22T01:20:46.941Z,99.90
2017-09-22T01:23:15.487Z,99.90
2017-09-22T01:25:43.136Z,99.90
2017-09-22T01:28:11.522Z,99.90
2017-09-22T01:30:39.521Z,99.90
2017-09-22T01:33:07.090Z,99.90
2017-09-22T01:35:34.654Z,99.90
2017-09-22T01:38:02.380Z,99.90
2017-09-22T01:40:30.680Z,99.90
2017-09-22T01:42:58.544Z,99.90
2017-09-22T01:45:26.128Z,99.90
2017-09-22T01:47:54.021Z,99.90
2017-09-22T01:50:21.616Z,99.90
2017-09-22T01:52:50.129Z,99.90
2017-09-22T01:55:18.568Z,99.90
2017-09-22T01:57:47.196Z,99.90
2017-09-22T02:00:14.761Z,99.90
2017-09-22T02:02:42.377Z,99.90
2017-09-22T02:05:10.897Z,99.90
2017-09-22T02:07:38.478Z,99.90
2017-09-22T02:10:06.062Z,99.90
2017-09-22T02:12:33.654Z,99.90
2017-09-22T02:15:01.242Z,99.90
2017-09-22T02:17:28.834Z,99.90
2017-09-22T02:19:56.414Z,99.90
2017-09-22T02:22:24.006Z,99.90
2017-09-22T02:24:51.606Z,99.90
2017-09-22T02:27:19.194Z,99.90
2017-09-22T02:29:46.777Z,99.90
2017-09-22T02:32:15.102Z,99.90
2017-09-22T02:34:43.007Z,99.90
2017-09-22T02:37:10.580Z,99.90
2017-09-22T02:39:38.929Z,99.90
2017-09-22T02:42:06.963Z,99.90
2017-09-22T02:44:34.551Z,99.90
2017-09-22T02:47:02.128Z,99.90
2017-09-22T02:49:29.705Z,99.90
2017-09-22T02:51:57.538Z,99.90
2017-09-22T02:54:25.112Z,99.90
2017-09-22T02:56:53.042Z,99.90
2017-09-22T02:59:20.812Z,99.90
2017-09-22T03:01:48.382Z,99.90
2017-09-22T03:04:15.968Z,99.90
2017-09-22T03:06:43.866Z,99.90
2017-09-22T03:09:12.186Z,99.90
2017-09-22T03:11:39.967Z,99.90
2017-09-22T03:14:07.540Z,99.90
2017-09-22T03:16:35.302Z,99.90
2017-09-22T03:19:02.970Z,99.90
2017-09-22T03:21:30.525Z,99.90
2017-09-22T03:23:58.093Z,99.90
2017-09-22T03:26:25.692Z,99.90
2017-09-22T03:28:54.049Z,99.90
2017-09-22T03:31:21.830Z,99.90
2017-09-22T03:33:50.169Z,99.90
2017-09-22T03:36:17.758Z,99.90
2017-09-22T03:38:46.101Z,99.90
2017-09-22T03:41:13.686Z,99.90
2017-09-22T03:43:41.435Z,99.90
2017-09-22T03:46:09.369Z,99.90
2017-09-22T03:48:37.246Z,99.90
2017-09-22T03:51:04.841Z,99.90
2017-09-22T03:53:32.623Z,99.90
2017-09-22T03:56:00.219Z,99.90
2017-09-22T03:58:27.807Z,99.90
2017-09-22T04:00:57.418Z,99.90
2017-09-22T04:03:25.014Z,99.90
2017-09-22T04:05:52.714Z,99.90
2017-09-22T04:08:20.314Z,99.90
2017-09-22T04:10:47.878Z,99.90
2017-09-22T04:13:15.634Z,99.90
2017-09-22T04:15:43.994Z,99.90
2017-09-22T04:18:11.573Z,99.90
2017-09-22T04:20:39.145Z,99.90
2017-09-22T04:23:06.902Z,99.90
2017-09-22T04:25:34.491Z,99.90
2017-09-22T04:28:02.069Z,99.90
2017-09-22T04:30:30.429Z,99.90
2017-09-22T04:32:58.042Z,99.90
2017-09-22T04:35:25.613Z,99.90
2017-09-22T04:37:53.176Z,99.90
2017-09-22T04:40:21.127Z,99.90
2017-09-22T04:42:48.702Z,99.90
2017-09-22T04:45:16.658Z,99.90
2017-09-22T04:47:44.222Z,99.90
2017-09-22T04:50:11.803Z,99.90
2017-09-22T04:52:39.386Z,99.90
2017-09-22T04:55:07.019Z,99.90
2017-09-22T04:57:34.561Z,99.90
2017-09-22T05:00:02.171Z,99.90
2017-09-22T05:02:29.766Z,99.90
2017-09-22T05:04:58.274Z,99.90
2017-09-22T05:07:25.858Z,99.90
2017-09-22T05:09:53.469Z,99.90
2017-09-22T05:12:21.861Z,99.90
2017-09-22T05:14:49.434Z,99.90
2017-09-22T05:17:17.001Z,99.90
2017-09-22T05:19:44.591Z,99.90
2017-09-22T05:22:12.151Z,99.90
2017-09-22T05:24:39.766Z,99.90
2017-09-22T05:27:07.379Z,99.90
2017-09-22T05:29:34.984Z,99.90
2017-09-22T05:32:02.578Z,99.90
2017-09-22T05:34:30.141Z,99.90
2017-09-22T05:36:57.739Z,99.90
2017-09-22T05:39:25.319Z,99.90
2017-09-22T05:41:54.554Z,99.90
2017-09-22T05:44:22.142Z,99.90
2017-09-22T05:46:49.878Z,99.90
2017-09-22T05:49:17.495Z,99.90
2017-09-22T05:51:45.067Z,99.90
2017-09-22T05:54:13.726Z,99.90
2017-09-22T05:56:41.298Z,99.90
2017-09-22T05:59:09.830Z,99.90
2017-09-22T06:01:37.674Z,99.90
2017-09-22T06:04:05.243Z,99.90
2017-09-22T06:06:33.059Z,99.90
2017-09-22T06:09:00.662Z,99.90
2017-09-22T06:11:28.426Z,99.90
2017-09-22T06:13:56.289Z,99.90
2017-09-22T06:16:24.633Z,99.90
2017-09-22T06:18:52.222Z,99.90
2017-09-22T06:21:20.576Z,99.90
2017-09-22T06:23:48.322Z,99.90
2017-09-22T06:26:15.923Z,99.90
2017-09-22T06:28:44.545Z,99.90
2017-09-22T06:31:12.411Z,99.90
2017-09-22T06:33:40.001Z,99.90
2017-09-22T06:36:07.742Z,99.90
2017-09-22T06:38:35.343Z,99.90
2017-09-22T06:41:03.279Z,99.90
2017-09-22T06:43:32.302Z,99.90
2017-09-22T06:46:00.165Z,99.90
2017-09-22T06:48:27.779Z,99.90
2017-09-22T06:50:55.369Z,99.90
2017-09-22T06:53:22.981Z,99.90
2017-09-22T06:55:51.317Z,99.90
2017-09-22T06:58:18.879Z,99.90
2017-09-22T07:00:46.736Z,99.90
2017-09-22T07:03:14.344Z,99.90
2017-09-22T07:05:41.926Z,99.90
2017-09-22T07:08:09.508Z,99.00
2017-09-22T07:10:37.083Z,97.80
2017-09-22T07:13:04.653Z,96.20
2017-09-22T07:15:33.025Z,95.50
2017-09-22T07:18:01.486Z,95.30
2017-09-22T07:20:29.057Z,93.90
2017-09-22T07:22:56.747Z,94.50
2017-09-22T07:25:24.335Z,92.40
2017-09-22T07:27:52.888Z,80.40
2017-09-22T07:30:21.427Z,80.30
2017-09-22T07:32:49.001Z,75.90
2017-09-22T07:35:16.594Z,72.00
2017-09-22T07:37:44.180Z,72.40
2017-09-22T07:40:11.766Z,69.60
2017-09-22T07:42:39.354Z,66.00
2017-09-22T07:45:06.967Z,63.80
2017-09-22T07:47:35.302Z,60.90
2017-09-22T07:50:02.978Z,60.90
2017-09-22T07:52:30.571Z,60.20
2017-09-22T07:55:00.055Z,61.00
2017-09-22T07:57:27.625Z,60.80
2017-09-22T07:59:57.043Z,60.30
2017-09-22T08:02:25.413Z,57.50
2017-09-22T08:04:52.989Z,57.40
2017-09-22T08:07:21.363Z,62.40
2017-09-22T08:09:49.730Z,64.70
2017-09-22T08:12:17.314Z,64.70
2017-09-22T08:14:45.658Z,67.60
2017-09-22T08:17:13.433Z,67.60
2017-09-22T08:19:41.044Z,65.30
2017-09-22T08:22:08.638Z,65.70
2017-09-22T08:24:36.249Z,65.90
2017-09-22T08:27:03.841Z,70.80
2017-09-22T08:29:31.421Z,68.00
2017-09-22T08:31:59.027Z,67.40
2017-09-22T08:34:27.383Z,67.70
2017-09-22T08:36:54.945Z,67.60
2017-09-22T08:39:22.537Z,68.30
2017-09-22T08:41:50.105Z,65.60
2017-09-22T08:44:18.575Z,64.60
2017-09-22T08:46:48.637Z,61.60
2017-09-22T08:49:16.229Z,61.50
2017-09-22T08:51:43.814Z,62.40
2017-09-22T08:54:12.202Z,66.00
2017-09-22T08:56:39.982Z,65.90
2017-09-22T08:59:07.591Z,67.60
2017-09-22T09:01:35.186Z,71.40
2017-09-22T09:04:04.233Z,75.80
2017-09-22T09:06:31.818Z,76.20
2017-09-22T09:08:59.397Z,77.10
2017-09-22T09:11:28.682Z,75.80
2017-09-22T09:13:56.745Z,75.70
2017-09-22T09:16:24.341Z,72.80
2017-09-22T09:31:51.945Z,74.70
2017-09-22T09:34:19.539Z,70.80
2017-09-22T09:36:47.120Z,69.00
2017-09-22T09:39:14.714Z,68.50
2017-09-22T09:41:42.329Z,70.00
2017-09-22T09:44:10.966Z,64.30
2017-09-22T09:46:38.547Z,64.20
2017-09-22T09:49:06.164Z,64.60
2017-09-22T09:51:33.779Z,66.70
2017-09-22T09:54:01.366Z,68.40
2017-09-22T09:56:29.719Z,65.10
2017-09-22T09:58:57.302Z,65.00
2017-09-22T10:01:25.691Z,70.00
2017-09-22T10:03:53.274Z,70.00
2017-09-22T10:06:20.902Z,71.00
2017-09-22T10:08:49.253Z,67.00
2017-09-22T10:11:16.826Z,66.90
2017-09-22T10:13:44.426Z,65.30
2017-09-22T10:16:11.994Z,59.90
2017-09-22T10:18:39.600Z,61.10
2017-09-22T10:21:07.223Z,61.20
2017-09-22T10:23:34.824Z,59.20
2017-09-22T10:26:02.412Z,60.90
2017-09-22T10:28:30.781Z,57.50
2017-09-22T10:30:59.170Z,57.40
2017-09-22T10:33:27.539Z,57.80
2017-09-22T10:35:55.154Z,57.80
2017-09-22T10:38:23.492Z,58.00
2017-09-22T10:40:51.839Z,57.80
2017-09-22T10:43:19.448Z,57.80
2017-09-22T10:45:47.119Z,59.30
2017-09-22T10:48:14.696Z,58.10
2017-09-22T10:50:42.434Z,59.80
2017-09-22T10:53:10.767Z,57.60
2017-09-22T10:55:38.359Z,57.50
2017-09-22T10:58:06.713Z,59.40
2017-09-22T11:00:34.317Z,59.40
2017-09-22T11:03:02.730Z,64.30
2017-09-22T11:05:30.312Z,64.30
2017-09-22T11:07:57.908Z,64.70
2017-09-22T11:10:26.439Z,69.30
2017-09-22T11:12:54.023Z,69.30
2017-09-22T11:15:21.582Z,71.40
2017-09-22T11:17:49.199Z,75.30
2017-09-22T11:20:23.116Z,72.40
2017-09-22T11:22:53.992Z,69.90
2017-09-22T11:25:21.714Z,78.10
2017-09-22T11:27:49.287Z,75.70
2017-09-22T11:30:16.865Z,73.60
2017-09-22T11:32:44.828Z,72.30
2017-09-22T11:35:12.461Z,73.20
2017-09-22T11:37:40.980Z,77.10
2017-09-22T11:40:08.565Z,75.80
2017-09-22T11:42:36.161Z,74.70
2017-09-22T11:45:03.734Z,72.20
2017-09-22T11:47:31.325Z,69.60
2017-09-22T11:49:58.899Z,68.50
2017-09-22T11:52:27.379Z,72.10
2017-09-22T11:54:55.011Z,75.90
2017-09-22T11:57:22.629Z,76.80
2017-09-22T11:59:51.030Z,71.70
2017-09-22T12:02:18.649Z,71.80
2017-09-22T12:04:46.251Z,73.50
2017-09-22T12:07:13.919Z,75.90
2017-09-22T12:09:41.519Z,79.40
2017-09-22T12:12:09.164Z,80.30
2017-09-22T12:14:36.775Z,81.20
2017-09-22T12:17:04.342Z,80.80
2017-09-22T12:19:32.985Z,82.00
2017-09-22T12:22:00.809Z,80.10
2017-09-22T12:24:28.394Z,81.00
2017-09-22T12:26:55.971Z,79.70
2017-09-22T12:29:23.905Z,85.70
2017-09-22T12:31:52.237Z,79.00
2017-09-22T12:34:19.815Z,78.80
2017-09-22T12:36:47.410Z,80.00
2017-09-22T12:39:15.003Z,81.80
2017-09-22T12:41:42.706Z,79.80
2017-09-22T12:44:10.352Z,79.80
2017-09-22T12:46:37.938Z,84.20
2017-09-22T12:49:06.289Z,86.00
2017-09-22T12:51:34.218Z,86.70
2017-09-22T12:54:01.792Z,84.30
2017-09-22T12:56:29.385Z,85.50
2017-09-22T12:58:56.963Z,86.30
2017-09-22T13:01:24.516Z,82.90
2017-09-22T13:03:52.119Z,84.10
2017-09-22T13:06:19.720Z,82.60
2017-09-22T13:08:47.287Z,84.20
2017-09-22T13:11:14.878Z,82.70
2017-09-22T13:13:43.299Z,84.40
2017-09-22T13:16:11.818Z,85.30
2017-09-22T13:18:39.414Z,85.20
2017-09-22T13:21:06.999Z,87.20
2017-09-22T13:23:34.596Z,83.70
2017-09-22T13:26:02.182Z,90.70
2017-09-22T13:28:30.645Z,85.90
2017-09-22T13:30:58.246Z,85.70
2017-09-22T13:33:25.875Z,83.30
2017-09-22T13:35:53.470Z,90.00
2017-09-22T13:38:21.054Z,83.60
2017-09-22T13:40:48.709Z,88.00
2017-09-22T13:43:17.043Z,88.60
2017-09-22T13:45:44.601Z,88.50
2017-09-22T13:48:12.187Z,86.50
2017-09-22T13:50:39.828Z,91.40
2017-09-22T13:53:07.422Z,91.30
2017-09-22T13:55:35.010Z,92.70
2017-09-22T13:58:02.616Z,93.60
2017-09-22T14:00:30.965Z,90.60
2017-09-22T14:02:58.578Z,90.60
2017-09-22T14:05:26.164Z,91.80
2017-09-22T14:07:53.730Z,89.70
2017-09-22T14:10:21.544Z,90.10
2017-09-22T14:12:49.122Z,91.00
2017-09-22T14:15:17.474Z,90.80
2017-09-22T14:17:45.063Z,90.80
2017-09-22T14:20:12.822Z,91.60
2017-09-22T14:22:41.161Z,93.10
2017-09-22T14:25:09.343Z,93.10
2017-09-22T14:27:36.923Z,93.80
2017-09-22T14:30:05.275Z,93.00
2017-09-22T14:32:32.888Z,93.00
2017-09-22T14:35:01.238Z,94.00
2017-09-22T14:37:28.946Z,94.00
2017-09-22T14:39:56.527Z,93.50
2017-09-22T14:42:24.142Z,92.60
2017-09-22T14:44:52.549Z,93.20
2017-09-22T14:47:20.909Z,93.00
2017-09-22T14:49:48.498Z,93.00
2017-09-22T14:52:16.086Z,93.10
2017-09-22T14:54:43.678Z,93.30
2017-09-22T14:57:12.046Z,93.10
2017-09-22T14:59:39.620Z,93.00
2017-09-22T15:02:08.018Z,93.00
2017-09-22T15:04:35.831Z,93.10
2017-09-22T15:07:03.401Z,93.30
2017-09-22T15:09:31.029Z,92.30
2017-09-22T15:11:58.614Z,92.20
2017-09-22T15:14:26.273Z,92.40
2017-09-22T15:16:53.883Z,92.40
2017-09-22T15:19:22.198Z,92.00
2017-09-22T15:21:49.800Z,91.60
2017-09-22T15:24:17.371Z,94.00
2017-09-22T15:26:45.727Z,94.10
2017-09-22T15:29:13.287Z,94.10
2017-09-22T15:31:40.885Z,93.20
2017-09-22T15:34:09.500Z,94.10
2017-09-22T15:36:37.366Z,94.00
2017-09-22T15:39:04.962Z,94.10
2017-09-22T15:41:32.567Z,94.30
2017-09-22T15:44:00.939Z,94.30
2017-09-22T15:46:29.270Z,95.90
2017-09-22T15:48:56.868Z,95.80
2017-09-22T15:51:25.214Z,94.10
2017-09-22T15:53:52.793Z,94.10
2017-09-22T15:56:20.376Z,94.00
2017-09-22T15:58:48.735Z,94.20
2017-09-22T16:01:16.344Z,94.20
2017-09-22T16:03:43.929Z,94.40
2017-09-22T16:06:11.517Z,94.70
2017-09-22T16:08:39.155Z,95.00
2017-09-22T16:11:06.762Z,96.70
2017-09-22T16:13:35.397Z,97.50
2017-09-22T16:16:03.250Z,97.50
2017-09-22T16:18:31.130Z,97.60
2017-09-22T16:20:58.734Z,98.40
2017-09-22T16:23:27.086Z,99.40
2017-09-22T16:25:54.987Z,99.40
2017-09-22T16:28:23.343Z,98.90
2017-09-22T16:30:51.107Z,98.90
2017-09-22T16:33:18.721Z,99.40
2017-09-22T16:35:46.324Z,99.70
2017-09-22T16:38:13.902Z,99.90
2017-09-22T16:40:41.496Z,99.90
2017-09-22T16:43:09.122Z,99.90
2017-09-22T16:45:36.941Z,99.90
2017-09-22T16:48:04.542Z,99.90
2017-09-22T16:50:32.132Z,99.90
2017-09-22T16:53:00.451Z,99.90
2017-09-22T16:55:28.080Z,99.90
2017-09-22T16:57:56.423Z,99.90
2017-09-22T17:00:24.025Z,99.90
2017-09-22T17:02:52.402Z,99.90
2017-09-22T17:05:20.753Z,99.90
2017-09-22T17:07:48.313Z,99.90
2017-09-22T17:10:15.925Z,99.90
2017-09-22T17:12:43.522Z,99.90
2017-09-22T17:15:11.125Z,99.90
2017-09-22T17:17:39.482Z,99.90
2017-09-22T17:20:07.074Z,99.90
2017-09-22T17:22:34.869Z,99.90
2017-09-22T17:25:02.473Z,99.90
2017-09-22T17:27:30.070Z,99.90
2017-09-22T17:29:57.839Z,99.90
2017-09-22T17:32:30.969Z,99.90
2017-09-22T17:34:58.656Z,99.90
2017-09-22T17:37:26.214Z,99.90
2017-09-22T17:39:53.833Z,99.90
2017-09-22T17:42:21.442Z,99.90
2017-09-22T17:44:51.131Z,99.90
2017-09-22T17:47:22.458Z,99.90
2017-09-22T17:49:50.096Z,99.90
2017-09-22T17:52:17.692Z,99.90
2017-09-22T17:54:45.283Z,99.90
2017-09-22T17:57:12.869Z,99.90
2017-09-22T17:59:41.229Z,99.90
2017-09-22T18:02:13.567Z,99.90
2017-09-22T18:04:41.968Z,99.90
2017-09-22T18:07:09.539Z,99.90
2017-09-22T18:09:37.152Z,99.90
2017-09-22T18:12:04.762Z,99.90
2017-09-22T18:14:32.369Z,99.90
2017-09-22T18:16:59.992Z,99.90
2017-09-22T18:19:28.404Z,99.90
2017-09-22T18:21:56.291Z,99.90
2017-09-22T18:24:23.886Z,99.90
2017-09-22T18:26:51.470Z,99.90
2017-09-22T18:29:19.835Z,99.90
2017-09-22T18:31:47.458Z,99.90
2017-09-22T18:34:15.213Z,99.90
2017-09-22T18:36:42.785Z,99.90
2017-09-22T18:39:10.685Z,99.90
2017-09-22T18:41:39.527Z,99.90
2017-09-22T18:44:07.126Z,99.90
2017-09-22T18:46:34.836Z,99.90
2017-09-22T18:49:03.185Z,99.90
2017-09-22T18:51:30.814Z,99.90
2017-09-22T18:53:58.410Z,99.90
2017-09-22T18:56:26.001Z,99.90
2017-09-22T18:58:53.617Z,99.90
2017-09-22T19:01:21.224Z,99.90
2017-09-22T19:03:49.138Z,99.90
2017-09-22T19:06:16.706Z,99.90
2017-09-22T19:08:44.468Z,99.90
2017-09-22T19:11:12.053Z,99.90
2017-09-22T19:13:39.856Z,99.90
2017-09-22T19:16:07.445Z,99.90
2017-09-22T19:18:35.236Z,99.90
2017-09-22T19:21:03.062Z,99.90
2017-09-22T19:23:30.628Z,99.90
2017-09-22T19:25:58.268Z,99.90
2017-09-22T19:28:25.842Z,99.90
2017-09-22T19:30:53.467Z,99.90
2017-09-22T19:33:21.816Z,99.90
2017-09-22T19:35:49.488Z,99.90
2017-09-22T19:38:17.075Z,99.90
2017-09-22T19:40:45.410Z,99.90
2017-09-22T19:43:13.277Z,99.90
2017-09-22T19:45:40.845Z,99.90
2017-09-22T19:48:08.450Z,99.90
2017-09-22T19:50:36.882Z,99.90
2017-09-22T19:53:04.487Z,99.90
2017-09-22T19:55:32.852Z,99.90
2017-09-22T19:58:00.467Z,99.90
2017-09-22T20:00:28.925Z,99.90
2017-09-22T20:02:56.506Z,99.90
2017-09-22T20:05:24.105Z,99.90
2017-09-22T20:07:51.715Z,99.90
2017-09-22T20:10:19.287Z,99.90
2017-09-22T20:12:46.887Z,99.90
2017-09-22T20:15:14.485Z,99.90
2017-09-22T20:17:42.111Z,99.90
2017-09-22T20:20:09.714Z,99.90
2017-09-22T20:22:38.055Z,99.90
2017-09-22T20:25:05.677Z,99.90
2017-09-22T20:27:34.033Z,99.90
2017-09-22T20:30:02.335Z,99.90
2017-09-22T20:32:30.704Z,99.90
2017-09-22T20:34:59.062Z,99.90
2017-09-22T20:37:27.439Z,99.90
2017-09-22T20:39:55.816Z,99.90
2017-09-22T20:42:24.171Z,99.90
2017-09-22T20:44:51.762Z,99.90
2017-09-22T20:47:20.142Z,99.90
2017-09-22T20:49:47.719Z,99.90
2017-09-22T20:52:15.342Z,99.90
2017-09-22T20:54:42.945Z,99.90
2017-09-22T20:57:10.521Z,99.90
2017-09-22T20:59:38.182Z,99.90
2017-09-22T21:02:05.771Z,99.90
2017-09-22T21:04:33.397Z,99.90
2017-09-22T21:07:01.012Z,99.90
2017-09-22T21:09:28.785Z,99.90
2017-09-22T21:11:57.266Z,99.90
2017-09-22T21:14:25.598Z,99.90
2017-09-22T21:16:53.178Z,99.90
2017-09-22T21:19:20.796Z,99.90
2017-09-22T21:21:48.372Z,99.90
2017-09-22T21:24:15.979Z,99.90
2017-09-22T21:26:43.738Z,99.90
2017-09-22T21:29:11.318Z,99.90
2017-09-22T21:31:39.675Z,99.90
2017-09-22T21:34:07.370Z,99.90
2017-09-22T21:36:35.758Z,99.90
2017-09-22T21:39:03.321Z,99.90
2017-09-22T21:41:30.916Z,99.90
2017-09-22T21:43:58.499Z,99.90
2017-09-22T21:46:26.097Z,99.90
2017-09-22T21:48:54.447Z,99.90
2017-09-22T21:51:22.043Z,99.90
2017-09-22T21:53:49.645Z,99.90
2017-09-22T21:56:17.242Z,99.90
2017-09-22T21:58:45.586Z,99.90
2017-09-22T22:01:13.174Z,99.90
2017-09-22T22:03:46.268Z,99.90
2017-09-22T22:06:19.498Z,99.90
2017-09-22T22:08:52.803Z,99.90
2017-09-22T22:11:20.367Z,99.90
2017-09-22T22:13:47.969Z,99.90
2017-09-22T22:16:15.590Z,99.90
2017-09-22T22:18:43.176Z,99.90
2017-09-22T22:21:10.964Z,99.90
2017-09-22T22:23:38.535Z,99.90
2017-09-22T22:26:06.902Z,99.90
2017-09-22T22:28:34.456Z,99.90
2017-09-22T22:31:02.031Z,99.90
2017-09-22T22:33:29.635Z,99.90
2017-09-22T22:35:57.228Z,99.90
2017-09-22T22:38:25.064Z,99.90
2017-09-22T22:40:52.642Z,99.90
2017-09-22T22:43:20.269Z,99.90
2017-09-22T22:45:48.622Z,99.90
2017-09-22T22:48:16.999Z,99.90
2017-09-22T22:50:44.624Z,99.90
2017-09-22T22:53:12.225Z,99.90
2017-09-22T22:55:39.824Z,99.90
2017-09-22T22:58:07.414Z,99.90
2017-09-22T23:00:35.031Z,99.90
2017-09-22T23:03:02.643Z,99.90
2017-09-22T23:05:30.246Z,99.90
2017-09-22T23:07:58.636Z,99.90
2017-09-22T23:10:27.010Z,99.90
2017-09-22T23:12:55.390Z,99.90
2017-09-22T23:15:23.742Z,99.90
2017-09-22T23:17:51.374Z,99.90
2017-09-22T23:20:19.095Z,99.90
2017-09-22T23:22:47.451Z,99.90
2017-09-22T23:25:15.045Z,99.90
2017-09-22T23:27:43.422Z,99.90
2017-09-22T23:30:11.147Z,99.90
2017-09-22T23:32:38.717Z,99.90
2017-09-22T23:35:06.337Z,99.90
2017-09-22T23:37:34.272Z,99.90
2017-09-22T23:40:02.632Z,99.90
2017-09-22T23:42:30.433Z,99.90
2017-09-22T23:44:58.018Z,99.90
2017-09-22T23:47:25.615Z,99.90
2017-09-22T23:49:53.219Z,99.90
2017-09-22T23:52:20.873Z,99.90
2017-09-22T23:54:49.222Z,99.90
2017-09-22T23:57:16.847Z,99.90
2017-09-22T23:59:44.422Z,99.90
